Time;durP1;ratioP1;P1;durP2;ratioP2;P2;SDS_P1;SDS_P2;PMS_P1;PMS_P2;Temp;Humidity;BMP_temperature;BMP_pressure;BME280_temperature;BME280_humidity;BME280_pressure;Samples;Min_cycle;Max_cycle;Signal;HPM_P1;HPM_P2
2022/08/31 00:04:46;;;;;;;4.10;1.20;;;16.00;99.10;;;;;;5048446;28;20118;-72
2022/08/31 00:07:12;;;;;;;5.07;1.00;;;16.00;98.90;;;;;;5035122;28;20476;-72
2022/08/31 00:09:38;;;;;;;3.47;1.17;;;16.00;98.80;;;;;;5050330;28;20037;-72
2022/08/31 00:12:04;;;;;;;4.10;1.20;;;15.90;98.80;;;;;;5068815;28;20048;-72
2022/08/31 00:14:29;;;;;;;4.10;1.23;;;15.90;98.70;;;;;;5040396;28;20048;-73
2022/08/31 00:16:55;;;;;;;2.97;1.20;;;15.90;98.20;;;;;;5057368;28;20040;-72
2022/08/31 00:19:21;;;;;;;6.57;1.13;;;15.90;98.10;;;;;;5070129;28;20033;-72
2022/08/31 00:21:47;;;;;;;4.45;1.10;;;15.90;97.80;;;;;;5069333;28;20048;-72
2022/08/31 00:24:13;;;;;;;3.20;1.08;;;15.80;97.20;;;;;;5055707;28;20040;-74
2022/08/31 00:26:39;;;;;;;3.25;1.00;;;15.80;97.10;;;;;;5057150;28;20115;-73
2022/08/31 00:29:05;;;;;;;3.75;1.05;;;15.80;96.60;;;;;;5057281;28;20606;-72
2022/08/31 00:31:31;;;;;;;3.70;1.00;;;15.80;96.50;;;;;;5026632;28;20124;-73
2022/08/31 00:33:57;;;;;;;2.88;1.00;;;15.80;96.50;;;;;;5040781;28;20162;-73
2022/08/31 00:36:24;;;;;;;3.50;1.00;;;15.80;96.30;;;;;;5074542;28;20382;-73
2022/08/31 00:38:51;;;;;;;3.38;1.10;;;15.80;96.30;;;;;;5056210;28;20471;-73
2022/08/31 00:41:21;;;;;;;4.38;0.90;;;15.70;96.10;;;;;;5056771;28;20143;-73
2022/08/31 00:43:55;;;;;;;2.50;0.90;;;15.70;95.80;;;;;;5074624;28;20037;-72
2022/08/31 00:46:25;;;;;;;3.25;1.10;;;15.70;95.80;;;;;;5057134;28;20120;-72
2022/08/31 00:48:57;;;;;;;3.05;1.00;;;15.60;95.80;;;;;;5054072;28;20454;-72
2022/08/31 00:51:23;;;;;;;2.78;0.95;;;15.60;95.80;;;;;;5056303;28;20045;-73
2022/08/31 00:53:50;;;;;;;2.33;0.90;;;15.60;95.80;;;;;;5047565;28;20048;-72
2022/08/31 00:56:16;;;;;;;2.10;0.85;;;15.50;95.80;;;;;;5044334;28;20048;-74
2022/08/31 00:58:43;;;;;;;2.85;0.90;;;15.50;95.70;;;;;;5056885;28;20058;-73
2022/08/31 01:01:10;;;;;;;1.75;0.70;;;15.50;95.70;;;;;;5056823;28;20378;-73
2022/08/31 01:03:36;;;;;;;3.42;0.95;;;15.50;95.30;;;;;;5067992;28;20040;-73
2022/08/31 01:06:02;;;;;;;2.72;0.80;;;15.40;95.30;;;;;;5076226;28;20048;-72
2022/08/31 01:08:28;;;;;;;2.35;0.82;;;15.40;95.40;;;;;;5056232;28;20127;-73
2022/08/31 01:10:54;;;;;;;2.95;0.93;;;15.40;95.40;;;;;;5025830;28;20437;-73
2022/08/31 01:13:20;;;;;;;2.30;0.93;;;15.30;95.60;;;;;;5048625;28;20388;-74
2022/08/31 01:15:54;;;;;;;2.15;0.90;;;15.30;95.90;;;;;;5055319;28;20379;-73
2022/08/31 01:18:22;;;;;;;2.35;0.90;;;15.20;96.10;;;;;;5043056;28;20097;-74
2022/08/31 01:21:12;;;;;;;3.75;0.88;;;15.10;96.10;;;;;;5056096;28;20101;-73
2022/08/31 01:23:41;;;;;;;3.35;1.00;;;15.10;96.30;;;;;;5049772;28;20051;-73
2022/08/31 01:26:09;;;;;;;2.00;0.85;;;15.00;96.40;;;;;;5055635;28;20040;-74
2022/08/31 01:28:35;;;;;;;3.15;1.05;;;15.00;96.50;;;;;;5049794;28;20052;-73
2022/08/31 01:31:21;;;;;;;2.90;0.80;;;14.90;96.60;;;;;;5065958;28;20051;-72
2022/08/31 01:33:46;;;;;;;2.25;0.80;;;14.90;96.60;;;;;;5040172;28;20037;-73
2022/08/31 01:36:14;;;;;;;3.00;1.00;;;14.80;96.70;;;;;;5053316;28;20048;-74
2022/08/31 01:38:39;;;;;;;2.75;0.93;;;14.80;96.90;;;;;;5072739;28;20421;-73
2022/08/31 01:41:05;;;;;;;3.45;1.00;;;14.70;97.00;;;;;;5055835;28;20044;-73
2022/08/31 01:43:33;;;;;;;2.00;0.90;;;14.70;97.10;;;;;;5070046;28;20047;-72
2022/08/31 01:46:08;;;;;;;1.45;0.80;;;14.60;97.20;;;;;;5036136;28;20507;-73
2022/08/31 01:48:34;;;;;;;3.03;1.00;;;14.50;97.40;;;;;;5032037;28;20048;-74
2022/08/31 01:51:01;;;;;;;2.25;0.85;;;14.50;97.50;;;;;;5035543;28;20045;-72
2022/08/31 01:53:27;;;;;;;3.40;0.88;;;14.40;97.60;;;;;;5038502;28;20048;-72
2022/08/31 01:55:52;;;;;;;3.78;1.00;;;14.40;97.80;;;;;;5035960;28;20044;-73
2022/08/31 01:58:18;;;;;;;4.15;0.88;;;14.30;97.90;;;;;;5055448;28;20086;-74
2022/08/31 02:00:44;;;;;;;2.22;0.85;;;14.20;98.20;;;;;;5052668;28;20036;-73
2022/08/31 02:03:10;;;;;;;2.00;0.90;;;14.20;98.30;;;;;;5035224;28;20428;-73
2022/08/31 02:05:37;;;;;;;2.40;0.98;;;14.20;98.50;;;;;;5048179;28;20499;-73
2022/08/31 02:08:05;;;;;;;2.47;1.00;;;14.10;98.80;;;;;;5028155;28;20127;-73
2022/08/31 02:10:30;;;;;;;3.42;1.00;;;14.00;99.00;;;;;;5055368;28;20094;-73
2022/08/31 02:12:56;;;;;;;2.97;1.00;;;13.90;99.20;;;;;;5055234;28;20079;-72
2022/08/31 02:15:22;;;;;;;2.67;1.00;;;13.80;99.50;;;;;;5055061;28;20083;-72
2022/08/31 02:17:48;;;;;;;2.88;0.90;;;13.80;99.40;;;;;;5073033;28;20037;-72
2022/08/31 02:20:14;;;;;;;2.97;0.90;;;13.70;99.50;;;;;;5055015;28;20424;-73
2022/08/31 02:22:40;;;;;;;2.50;0.90;;;13.70;99.70;;;;;;5050787;28;20049;-72
2022/08/31 02:25:06;;;;;;;2.63;0.80;;;13.60;99.90;;;;;;5044655;28;20480;-72
2022/08/31 02:27:33;;;;;;;2.00;0.80;;;13.60;99.90;;;;;;5055228;28;20044;-72
2022/08/31 02:29:59;;;;;;;2.88;1.08;;;13.50;99.90;;;;;;5043548;28;20483;-72
2022/08/31 02:32:24;;;;;;;2.72;1.00;;;13.50;99.90;;;;;;5048047;28;20040;-73
2022/08/31 02:34:50;;;;;;;3.95;1.10;;;13.40;99.90;;;;;;5024887;28;20045;-72
2022/08/31 02:37:17;;;;;;;3.30;1.00;;;13.20;99.90;;;;;;5064117;28;20091;-73
2022/08/31 02:39:42;;;;;;;3.17;1.00;;;13.10;99.90;;;;;;5034948;28;20044;-73
2022/08/31 02:42:08;;;;;;;3.47;1.00;;;13.10;99.90;;;;;;5072821;28;20048;-73
2022/08/31 02:44:34;;;;;;;3.22;0.90;;;13.10;99.90;;;;;;5055396;28;20041;-74
2022/08/31 02:46:59;;;;;;;3.08;1.00;;;13.10;99.90;;;;;;5044503;28;20399;-74
2022/08/31 02:49:25;;;;;;;4.97;1.20;;;13.10;99.90;;;;;;5048847;28;20474;-73
2022/08/31 02:51:51;;;;;;;2.25;0.98;;;13.10;99.90;;;;;;5053897;28;20086;-73
2022/08/31 02:54:17;;;;;;;2.88;1.10;;;13.10;99.90;;;;;;5046947;28;20044;-73
2022/08/31 02:56:42;;;;;;;3.10;1.10;;;13.00;99.90;;;;;;5034998;28;20041;-72
2022/08/31 02:59:08;;;;;;;2.97;1.05;;;13.00;99.90;;;;;;5043104;28;20393;-73
2022/08/31 03:01:36;;;;;;;2.55;1.00;;;13.00;99.90;;;;;;5039768;28;20041;-72
2022/08/31 03:04:02;;;;;;;3.50;1.00;;;12.90;99.90;;;;;;5051678;28;20435;-73
2022/08/31 03:06:30;;;;;;;3.22;1.00;;;12.80;99.90;;;;;;5052224;28;20356;-75
2022/08/31 03:08:58;;;;;;;2.17;1.00;;;12.80;99.90;;;;;;5058133;28;20044;-72
2022/08/31 03:11:24;;;;;;;4.13;1.10;;;12.70;99.90;;;;;;5063778;28;20044;-71
2022/08/31 03:13:50;;;;;;;2.85;1.08;;;12.70;99.90;;;;;;5051030;28;20049;-72
2022/08/31 03:16:16;;;;;;;2.90;1.00;;;12.70;99.90;;;;;;5053476;28;20491;-73
2022/08/31 03:18:42;;;;;;;4.90;1.00;;;12.70;99.90;;;;;;5070297;28;20105;-73
2022/08/31 03:21:07;;;;;;;2.20;1.00;;;12.70;99.90;;;;;;5076079;28;20129;-73
2022/08/31 03:23:33;;;;;;;3.65;1.00;;;12.60;99.90;;;;;;5061088;28;20045;-73
2022/08/31 03:25:59;;;;;;;3.47;1.15;;;12.60;99.90;;;;;;5075664;28;20050;-74
2022/08/31 03:28:24;;;;;;;2.17;1.00;;;12.60;99.90;;;;;;5051604;28;20044;-72
2022/08/31 03:30:51;;;;;;;3.33;1.15;;;12.50;99.90;;;;;;5044503;28;20102;-74
2022/08/31 03:33:17;;;;;;;3.42;1.10;;;12.50;99.90;;;;;;5041285;28;20475;-73
2022/08/31 03:35:44;;;;;;;2.72;1.10;;;12.50;99.90;;;;;;5057595;28;20044;-72
2022/08/31 03:38:11;;;;;;;3.20;1.20;;;12.50;99.90;;;;;;5051077;28;20556;-73
2022/08/31 03:40:39;;;;;;;4.47;1.20;;;12.40;99.90;;;;;;5050893;28;20110;-71
2022/08/31 03:43:10;;;;;;;3.42;1.20;;;12.40;99.90;;;;;;5050570;28;20040;-73
2022/08/31 03:45:37;;;;;;;3.03;1.10;;;12.40;99.90;;;;;;5041378;28;20043;-73
2022/08/31 03:48:05;;;;;;;2.05;1.05;;;12.40;99.90;;;;;;5054296;28;20178;-73
2022/08/31 03:50:32;;;;;;;3.33;1.20;;;12.30;99.90;;;;;;5035993;28;20052;-73
2022/08/31 03:52:59;;;;;;;3.10;1.13;;;12.30;99.90;;;;;;5043856;28;20045;-73
2022/08/31 03:55:27;;;;;;;3.78;1.30;;;12.30;99.90;;;;;;5048754;28;20047;-73
2022/08/31 03:57:53;;;;;;;2.85;1.17;;;12.30;99.90;;;;;;5063527;28;20038;-73
2022/08/31 04:00:19;;;;;;;4.40;1.30;;;12.20;99.90;;;;;;5045691;28;20433;-74
2022/08/31 04:02:45;;;;;;;3.55;1.20;;;12.20;99.90;;;;;;5057657;28;20045;-72
2022/08/31 04:05:12;;;;;;;2.92;1.10;;;12.20;99.90;;;;;;5051443;28;20144;-74
2022/08/31 04:07:38;;;;;;;3.50;1.30;;;12.20;99.90;;;;;;5037038;28;20048;-72
2022/08/31 04:10:04;;;;;;;3.13;1.20;;;12.20;99.90;;;;;;5055358;28;20041;-73
2022/08/31 04:12:30;;;;;;;3.70;1.33;;;12.10;99.90;;;;;;5037357;28;20033;-73
2022/08/31 04:14:56;;;;;;;3.78;1.38;;;12.40;99.90;;;;;;5021558;28;20056;-73
2022/08/31 04:17:22;;;;;;;3.55;1.40;;;12.10;99.90;;;;;;5072353;28;20371;-72
2022/08/31 04:19:47;;;;;;;3.88;1.50;;;12.10;99.90;;;;;;5057661;28;20036;-73
2022/08/31 04:22:13;;;;;;;4.60;1.40;;;12.10;99.90;;;;;;5056384;28;20052;-73
2022/08/31 04:24:39;;;;;;;5.35;1.58;;;12.10;99.90;;;;;;5073713;28;20032;-72
2022/08/31 04:27:04;;;;;;;2.67;1.30;;;12.00;99.90;;;;;;5064096;28;20051;-73
2022/08/31 04:29:30;;;;;;;4.07;1.50;;;12.00;99.90;;;;;;5043038;28;20480;-71
2022/08/31 04:31:56;;;;;;;3.95;1.50;;;12.00;99.90;;;;;;5074895;28;20036;-73
2022/08/31 04:34:22;;;;;;;3.53;1.40;;;12.00;99.90;;;;;;5068946;28;20110;-73
2022/08/31 04:36:48;;;;;;;5.65;1.80;;;11.90;99.90;;;;;;5038692;28;20044;-72
2022/08/31 04:39:13;;;;;;;3.97;1.65;;;11.90;99.90;;;;;;5063424;28;20036;-74
2022/08/31 04:41:40;;;;;;;3.90;1.33;;;11.90;99.90;;;;;;5056587;28;20079;-72
2022/08/31 04:44:07;;;;;;;3.30;1.40;;;11.90;99.90;;;;;;5056983;28;20482;-73
2022/08/31 04:46:35;;;;;;;4.00;1.63;;;11.90;99.90;;;;;;5042935;28;20045;-74
2022/08/31 04:49:01;;;;;;;4.88;1.58;;;11.90;99.90;;;;;;5050582;28;20049;-73
2022/08/31 04:51:29;;;;;;;6.63;1.60;;;11.80;99.90;;;;;;5066871;28;20044;-72
2022/08/31 04:53:56;;;;;;;4.20;1.60;;;11.80;99.90;;;;;;5051020;28;20037;-74
2022/08/31 04:56:25;;;;;;;4.15;1.63;;;11.80;99.90;;;;;;5047672;28;20094;-74
2022/08/31 04:58:57;;;;;;;3.83;1.60;;;11.70;99.90;;;;;;5053237;28;20052;-72
2022/08/31 05:01:24;;;;;;;;;;;11.70;99.90;;;;;;5057380;28;20141;-71
2022/08/31 05:03:51;;;;;;;4.57;1.60;;;11.60;99.90;;;;;;5073671;28;20359;-72
2022/08/31 05:06:19;;;;;;;4.45;1.60;;;11.70;99.90;;;;;;5074051;28;20052;-74
2022/08/31 05:08:45;;;;;;;4.20;1.70;;;11.70;99.90;;;;;;5052311;28;20041;-73
2022/08/31 05:11:17;;;;;;;4.75;1.70;;;11.70;99.90;;;;;;5029547;28;20079;-72
2022/08/31 05:13:42;;;;;;;4.97;1.80;;;11.70;99.90;;;;;;5056173;28;20462;-73
2022/08/31 05:16:10;;;;;;;4.75;1.90;;;11.70;99.90;;;;;;5039164;28;20318;-74
2022/08/31 05:18:37;;;;;;;3.33;1.60;;;11.70;99.90;;;;;;5072812;28;20399;-73
2022/08/31 05:21:15;;;;;;;4.10;1.70;;;11.70;99.90;;;;;;5055661;28;20476;-72
2022/08/31 05:23:44;;;;;;;3.75;1.60;;;11.70;99.90;;;;;;5061028;28;20503;-72
2022/08/31 05:26:19;;;;;;;5.30;1.80;;;11.70;99.90;;;;;;5056218;28;20475;-74
2022/08/31 05:28:46;;;;;;;4.60;1.70;;;11.70;99.90;;;;;;5048228;28;20479;-74
2022/08/31 05:31:12;;;;;;;4.53;2.00;;;11.70;99.90;;;;;;5054115;28;20522;-74
2022/08/31 05:33:38;;;;;;;4.63;1.90;;;11.70;99.90;;;;;;5037737;28;20123;-72
2022/08/31 05:36:04;;;;;;;4.53;1.70;;;11.60;99.90;;;;;;5042754;28;20080;-72
2022/08/31 05:38:30;;;;;;;4.38;2.00;;;11.70;99.90;;;;;;5054228;28;20037;-72
2022/08/31 05:40:59;;;;;;;4.40;1.80;;;11.70;99.90;;;;;;5052232;28;20040;-72
2022/08/31 05:43:26;;;;;;;4.10;1.77;;;11.70;99.90;;;;;;5053122;28;20068;-75
2022/08/31 05:45:53;;;;;;;5.68;1.92;;;11.70;99.90;;;;;;5022282;28;20049;-73
2022/08/31 05:48:20;;;;;;;6.18;2.03;;;11.80;99.90;;;;;;5035393;28;20087;-73
2022/08/31 05:50:46;;;;;;;5.40;1.90;;;11.80;99.90;;;;;;5042747;28;20111;-72
2022/08/31 05:53:12;;;;;;;5.78;2.10;;;11.80;99.90;;;;;;5052233;28;20491;-72
2022/08/31 05:55:37;;;;;;;4.65;1.98;;;11.80;99.90;;;;;;5070580;28;20125;-72
2022/08/31 05:58:03;;;;;;;6.75;2.10;;;11.80;99.90;;;;;;5042167;28;20384;-72
2022/08/31 06:00:31;;;;;;;4.50;2.08;;;11.90;99.90;;;;;;5053218;28;20495;-72
2022/08/31 06:02:56;;;;;;;6.07;2.20;;;11.90;99.90;;;;;;5035643;28;20056;-72
2022/08/31 06:05:22;;;;;;;4.72;2.00;;;12.00;99.90;;;;;;5038395;28;20047;-72
2022/08/31 06:07:48;;;;;;;4.45;1.90;;;12.20;99.90;;;;;;5045325;28;20494;-76
2022/08/31 06:10:15;;;;;;;4.38;2.00;;;12.30;99.90;;;;;;5035054;28;20049;-74
2022/08/31 06:12:42;;;;;;;5.35;1.90;;;12.60;99.90;;;;;;5034940;28;20051;-73
2022/08/31 06:15:09;;;;;;;4.47;2.00;;;12.70;99.90;;;;;;5046146;28;20047;-73
2022/08/31 06:17:35;;;;;;;4.30;1.80;;;13.00;99.90;;;;;;5040943;28;20037;-75
2022/08/31 06:20:03;;;;;;;4.40;1.60;;;13.80;99.90;;;;;;5062295;28;20032;-75
2022/08/31 06:22:29;;;;;;;4.28;1.70;;;14.40;99.90;;;;;;5060119;28;20468;-72
2022/08/31 06:24:55;;;;;;;4.78;1.67;;;14.90;99.90;;;;;;5085965;28;20047;-73
2022/08/31 06:27:20;;;;;;;3.70;1.58;;;15.70;99.90;;;;;;5070337;28;20447;-73
2022/08/31 06:29:48;;;;;;;4.68;1.65;;;16.60;99.90;;;;;;5055165;28;20040;-74
2022/08/31 06:32:14;;;;;;;4.15;1.60;;;17.10;99.90;;;;;;5062278;28;20139;-73
2022/08/31 06:34:41;;;;;;;3.75;1.58;;;17.40;99.90;;;;;;5066710;28;20378;-73
2022/08/31 06:37:09;;;;;;;4.75;1.58;;;17.30;99.90;;;;;;5067945;28;20099;-74
2022/08/31 06:39:35;;;;;;;4.25;1.48;;;17.50;99.90;;;;;;5060161;28;20033;-72
2022/08/31 06:42:02;;;;;;;4.50;1.52;;;18.10;99.90;;;;;;5063499;28;20536;-74
2022/08/31 06:44:28;;;;;;;4.20;1.58;;;18.00;99.50;;;;;;5064650;28;20039;-74
2022/08/31 06:46:54;;;;;;;5.88;1.45;;;18.50;98.10;;;;;;5048925;28;20083;-71
2022/08/31 06:49:21;;;;;;;4.65;1.15;;;18.80;98.00;;;;;;5059104;28;20040;-72
2022/08/31 06:51:47;;;;;;;3.63;1.40;;;19.10;96.70;;;;;;5069203;28;20048;-74
2022/08/31 06:54:15;;;;;;;4.32;1.40;;;19.30;95.90;;;;;;5055168;28;20059;-75
2022/08/31 06:56:41;;;;;;;4.15;1.20;;;19.00;94.10;;;;;;5064929;28;20052;-71
2022/08/31 06:59:07;;;;;;;5.00;1.30;;;18.30;95.70;;;;;;5059071;28;20044;-74
2022/08/31 07:01:35;;;;;;;5.55;1.50;;;18.20;95.80;;;;;;5075584;28;20067;-74
2022/08/31 07:04:04;;;;;;;4.50;1.55;;;17.60;96.50;;;;;;5068203;28;20071;-72
2022/08/31 07:06:42;;;;;;;4.28;1.40;;;17.60;97.50;;;;;;5089649;28;20064;-72
2022/08/31 07:09:16;;;;;;;5.55;1.50;;;17.70;97.80;;;;;;5068093;28;20045;-74
2022/08/31 07:11:47;;;;;;;3.25;1.30;;;17.70;97.70;;;;;;5070740;28;20070;-74
2022/08/31 07:14:15;;;;;;;5.78;1.33;;;17.80;97.40;;;;;;5072359;28;20538;-74
2022/08/31 07:16:42;;;;;;;5.15;1.40;;;17.60;97.70;;;;;;5071277;28;20051;-72
2022/08/31 07:19:09;;;;;;;3.75;1.27;;;18.10;97.50;;;;;;5079147;28;20040;-76
2022/08/31 07:21:50;;;;;;;4.03;1.40;;;18.20;96.40;;;;;;5036295;28;20166;-76
2022/08/31 07:24:23;;;;;;;7.30;1.40;;;18.30;96.20;;;;;;5053756;28;20045;-73
2022/08/31 07:26:53;;;;;;;3.60;1.20;;;18.30;96.20;;;;;;5027298;28;20078;-75
2022/08/31 07:29:20;;;;;;;6.32;1.40;;;18.40;96.00;;;;;;5054513;28;20036;-75
2022/08/31 07:31:47;;;;;;;5.28;1.30;;;18.80;95.60;;;;;;4995703;28;20611;-73
2022/08/31 07:34:35;;;;;;;3.30;1.20;;;18.90;95.60;;;;;;5050195;28;20048;-75
2022/08/31 07:42:35;;;;;;;4.22;1.20;;;18.80;93.80;;;;;;5052702;28;20107;-73
2022/08/31 07:45:04;;;;;;;3.88;1.20;;;19.20;93.80;;;;;;5066027;28;20497;-76
2022/08/31 07:47:31;;;;;;;3.10;1.17;;;18.90;94.00;;;;;;5064564;28;20044;-73
2022/08/31 07:49:59;;;;;;;3.50;1.10;;;19.00;94.60;;;;;;5068032;28;20076;-74
2022/08/31 07:52:28;;;;;;;4.53;1.20;;;19.40;94.20;;;;;;5065079;28;20040;-73
2022/08/31 07:55:06;;;;;;;3.58;1.20;;;20.10;92.80;;;;;;5066601;28;20098;-72
2022/08/31 07:57:41;;;;;;;5.28;1.10;;;20.00;92.00;;;;;;5059442;28;20044;-76
2022/08/31 08:00:08;;;;;;;3.67;1.13;;;19.90;91.60;;;;;;5068445;28;20091;-73
2022/08/31 08:02:37;;;;;;;4.95;1.13;;;19.70;92.10;;;;;;5081168;28;20036;-75
2022/08/31 08:05:08;;;;;;;2.78;1.05;;;19.80;92.10;;;;;;5073390;28;20048;-78
2022/08/31 08:07:35;;;;;;;2.72;0.95;;;19.80;91.80;;;;;;5068121;28;20036;-73
2022/08/31 08:10:12;;;;;;;2.33;0.90;;;19.90;91.80;;;;;;5093401;28;20482;-75
2022/08/31 08:12:42;;;;;;;3.22;1.02;;;20.10;91.00;;;;;;5063940;28;20038;-72
2022/08/31 08:15:09;;;;;;;3.80;1.00;;;19.90;90.10;;;;;;5077109;28;20438;-79
2022/08/31 08:17:35;;;;;;;5.03;1.10;;;19.90;90.60;;;;;;5073716;28;20499;-72
2022/08/31 08:20:02;;;;;;;3.20;1.10;;;19.90;89.50;;;;;;5055683;28;20052;-72
2022/08/31 08:22:28;;;;;;;3.35;1.10;;;20.00;90.00;;;;;;5036089;28;20056;-72
2022/08/31 08:24:54;;;;;;;3.25;1.20;;;19.80;90.20;;;;;;5070830;28;20028;-73
2022/08/31 08:27:19;;;;;;;3.72;1.08;;;19.80;90.60;;;;;;5067344;28;20048;-73
2022/08/31 08:29:45;;;;;;;4.53;1.05;;;20.00;90.50;;;;;;5046348;28;20047;-78
2022/08/31 08:32:11;;;;;;;4.68;1.30;;;20.20;90.10;;;;;;5066169;28;20039;-76
2022/08/31 08:34:42;;;;;;;2.58;0.95;;;20.30;89.60;;;;;;5058269;28;20052;-75
2022/08/31 08:37:09;;;;;;;4.40;1.10;;;20.40;89.80;;;;;;5053105;28;20194;-74
2022/08/31 08:39:37;;;;;;;3.85;1.13;;;20.40;88.10;;;;;;5056748;28;20036;-75
2022/08/31 08:42:07;;;;;;;4.35;1.20;;;20.40;87.90;;;;;;5053713;28;20036;-75
2022/08/31 08:44:34;;;;;;;4.40;1.00;;;20.40;88.40;;;;;;5055920;28;20495;-75
2022/08/31 08:47:05;;;;;;;3.72;1.00;;;20.20;90.00;;;;;;5061962;28;21445;-77
2022/08/31 08:49:39;;;;;;;3.40;1.20;;;20.30;88.10;;;;;;5059480;28;20058;-74
2022/08/31 08:52:26;;;;;;;4.20;1.20;;;20.40;87.50;;;;;;5074773;28;20044;-76
2022/08/31 08:54:54;;;;;;;2.70;0.93;;;20.50;86.40;;;;;;5070004;28;20058;-76
2022/08/31 08:57:33;;;;;;;4.25;1.00;;;20.90;85.70;;;;;;5069055;28;20537;-73
2022/08/31 09:00:24;;;;;;;5.95;1.10;;;20.90;85.30;;;;;;5085157;28;20051;-74
2022/08/31 09:03:02;;;;;;;5.65;1.15;;;21.20;85.20;;;;;;5069958;28;20078;-72
2022/08/31 09:05:54;;;;;;;2.60;0.98;;;21.30;83.10;;;;;;5069581;28;20243;-78
2022/08/31 09:08:27;;;;;;;;;;;21.30;82.60;;;;;;5075176;28;20056;-76
2022/08/31 09:11:16;;;;;;;5.00;1.10;;;20.90;83.30;;;;;;5068517;28;19916;-73
2022/08/31 09:13:47;;;;;;;3.45;1.00;;;21.30;81.20;;;;;;5049442;28;20063;-75
2022/08/31 09:16:24;;;;;;;3.40;1.00;;;21.40;79.70;;;;;;5061325;28;20059;-76
2022/08/31 09:18:53;;;;;;;5.90;1.10;;;21.50;78.50;;;;;;5081136;28;20066;-80
2022/08/31 09:21:30;;;;;;;3.70;0.90;;;21.60;78.50;;;;;;5068903;28;20127;-74
2022/08/31 09:24:06;;;;;;;3.75;0.90;;;21.40;79.80;;;;;;5063535;28;20382;-77
2022/08/31 09:26:46;;;;;;;5.10;1.02;;;21.50;78.00;;;;;;5070453;28;20135;-74
2022/08/31 09:29:26;;;;;;;5.53;1.10;;;21.80;77.40;;;;;;5059242;28;20097;-75
2022/08/31 09:32:05;;;;;;;4.60;1.20;;;21.70;75.80;;;;;;5049828;28;20376;-76
2022/08/31 09:34:42;;;;;;;2.95;0.90;;;21.60;76.20;;;;;;5043722;28;20052;-75
2022/08/31 09:37:20;;;;;;;3.58;1.10;;;21.40;76.80;;;;;;5067281;28;20612;-75
2022/08/31 09:39:48;;;;;;;3.92;1.10;;;21.40;76.50;;;;;;5040203;28;20116;-77
2022/08/31 09:42:19;;;;;;;4.22;1.02;;;21.70;75.40;;;;;;5069149;28;20044;-78
2022/08/31 09:44:48;;;;;;;3.40;0.90;;;21.70;74.60;;;;;;5082837;28;20059;-74
2022/08/31 09:47:51;;;;;;;2.97;1.00;;;21.90;73.30;;;;;;5080559;28;20044;-78
2022/08/31 09:50:40;;;;;;;4.00;1.10;;;21.90;72.60;;;;;;5061100;28;20055;-74
2022/08/31 09:56:22;;;;;;;4.50;1.08;;;22.20;69.60;;;;;;5069977;28;20051;-74
2022/08/31 09:58:51;;;;;;;5.17;1.17;;;22.20;69.20;;;;;;5084348;28;20039;-75
2022/08/31 10:01:27;;;;;;;5.75;1.00;;;22.10;70.20;;;;;;5089907;28;20051;-73
2022/08/31 10:04:07;;;;;;;3.92;1.00;;;22.30;70.20;;;;;;5066858;28;20071;-75
2022/08/31 10:06:45;;;;;;;3.45;1.10;;;22.00;69.40;;;;;;5087275;28;20436;-77
2022/08/31 10:09:45;;;;;;;3.67;0.93;;;22.10;69.60;;;;;;5062566;28;20413;-74
2022/08/31 10:12:35;;;;;;;3.13;1.10;;;22.40;69.70;;;;;;5076621;28;20466;-77
2022/08/31 10:15:09;;;;;;;4.68;1.20;;;22.60;69.00;;;;;;5089226;28;20043;-75
2022/08/31 10:17:49;;;;;;;6.53;0.93;;;22.80;69.20;;;;;;5084638;28;20073;-76
2022/08/31 10:20:20;;;;;;;7.57;1.00;;;22.80;66.80;;;;;;5066300;28;20517;-73
2022/08/31 10:22:50;;;;;;;3.97;1.00;;;22.70;66.50;;;;;;5071810;28;20040;-73
2022/08/31 10:25:31;;;;;;;6.82;1.10;;;22.70;64.70;;;;;;5048879;28;20381;-76
2022/08/31 10:28:13;;;;;;;4.68;0.98;;;22.40;64.40;;;;;;5061457;28;20122;-79
2022/08/31 10:31:06;;;;;;;3.08;0.90;;;22.40;64.60;;;;;;5061275;28;20137;-79
2022/08/31 10:36:42;;;;;;;4.32;0.90;;;22.80;63.70;;;;;;5076214;28;20117;-75
2022/08/31 10:39:27;;;;;;;2.67;0.80;;;22.80;61.10;;;;;;5071584;28;20044;-80
2022/08/31 10:41:53;;;;;;;4.88;0.90;;;22.80;60.20;;;;;;5061359;28;20483;-76
2022/08/31 10:44:26;;;;;;;5.13;0.90;;;23.00;62.50;;;;;;5086901;28;20122;-76
2022/08/31 10:46:57;;;;;;;3.47;1.00;;;23.30;60.00;;;;;;5068787;28;20044;-78
2022/08/31 10:49:23;;;;;;;3.73;0.90;;;23.40;56.70;;;;;;5068031;28;20055;-71
2022/08/31 10:52:16;;;;;;;4.97;0.80;;;22.80;57.80;;;;;;5080517;28;20353;-74
2022/08/31 10:55:12;;;;;;;4.70;0.90;;;23.00;59.60;;;;;;5070844;28;20040;-75
2022/08/31 10:57:49;;;;;;;4.00;1.00;;;23.10;58.80;;;;;;5084862;28;20032;-76
2022/08/31 11:03:31;;;;;;;4.28;0.90;;;23.20;60.00;;;;;;5088196;28;20070;-73
2022/08/31 11:06:26;;;;;;;3.85;0.90;;;23.40;59.80;;;;;;5086386;28;20049;-77
2022/08/31 11:09:13;;;;;;;3.10;0.98;;;23.40;59.50;;;;;;5065354;28;20050;-74
2022/08/31 11:11:44;;;;;;;3.72;0.90;;;23.40;57.80;;;;;;5071870;28;20066;-76
2022/08/31 11:14:48;;;;;;;3.15;0.95;;;23.20;58.80;;;;;;5050203;28;20047;-75
2022/08/31 11:17:38;;;;;;;3.35;0.90;;;23.30;58.10;;;;;;5083012;28;20099;-76
2022/08/31 11:20:51;;;;;;;3.78;0.90;;;23.10;58.40;;;;;;5088352;28;20093;-74
2022/08/31 11:23:42;;;;;;;2.38;0.90;;;23.30;55.90;;;;;;5000491;28;20416;-75
2022/08/31 11:26:35;;;;;;;2.85;0.90;;;23.60;54.60;;;;;;5000363;28;20412;-76
2022/08/31 11:29:27;;;;;;;3.88;1.10;;;23.60;55.50;;;;;;5042452;28;20056;-78
2022/08/31 11:31:57;;;;;;;;;;;23.40;55.20;;;;;;5066194;28;20086;-72
2022/08/31 11:34:29;;;;;;;3.15;1.10;;;23.50;54.50;;;;;;5065081;28;20294;-76
2022/08/31 11:36:59;;;;;;;5.05;1.00;;;23.20;52.80;;;;;;5085857;28;20094;-80
2022/08/31 11:39:34;;;;;;;2.75;1.00;;;22.90;53.20;;;;;;5054543;28;20040;-78
2022/08/31 11:42:22;;;;;;;3.70;0.98;;;22.90;53.40;;;;;;5072220;28;20044;-76
2022/08/31 11:45:25;;;;;;;3.40;1.00;;;23.10;52.80;;;;;;5053172;28;20056;-74
2022/08/31 11:47:53;;;;;;;4.55;1.00;;;23.30;53.70;;;;;;5071230;28;20478;-78
2022/08/31 11:50:37;;;;;;;3.22;0.98;;;23.20;53.50;;;;;;5090414;28;20352;-75
2022/08/31 11:53:30;;;;;;;4.70;1.10;;;23.50;53.90;;;;;;5054471;28;20048;-75
2022/08/31 11:56:03;;;;;;;4.00;0.98;;;23.40;52.30;;;;;;5072634;28;20458;-74
2022/08/31 11:58:38;;;;;;;5.05;1.20;;;23.50;52.30;;;;;;5055567;28;20041;-74
2022/08/31 12:01:09;;;;;;;3.35;1.00;;;23.60;50.80;;;;;;5074829;28;20072;-74
2022/08/31 12:03:51;;;;;;;4.60;1.00;;;23.40;51.40;;;;;;5051613;28;20045;-77
2022/08/31 12:06:36;;;;;;;3.13;0.98;;;23.20;50.70;;;;;;5067715;28;20378;-73
2022/08/31 12:09:21;;;;;;;3.75;0.80;;;23.30;51.60;;;;;;5089201;28;20054;-75
2022/08/31 12:12:23;;;;;;;4.57;1.00;;;23.60;51.70;;;;;;5089240;28;20067;-72
2022/08/31 12:15:12;;;;;;;3.75;0.90;;;23.70;51.90;;;;;;5091181;28;20109;-75
2022/08/31 12:18:01;;;;;;;3.95;1.08;;;23.60;51.90;;;;;;5092019;28;20070;-72
2022/08/31 12:24:17;;;;;;;4.37;0.90;;;23.70;52.40;;;;;;5087544;28;20044;-74
2022/08/31 12:27:05;;;;;;;6.22;1.10;;;23.90;51.10;;;;;;5081184;28;20494;-74
2022/08/31 12:29:37;;;;;;;3.90;1.00;;;24.10;49.50;;;;;;5061180;28;20074;-73
2022/08/31 12:32:20;;;;;;;4.00;0.90;;;24.00;48.10;;;;;;5068785;28;20054;-79
2022/08/31 12:34:57;;;;;;;2.58;0.90;;;23.90;49.20;;;;;;5053236;28;20067;-76
2022/08/31 12:37:26;;;;;;;3.42;0.90;;;23.90;50.20;;;;;;5069992;28;20091;-77
2022/08/31 12:40:26;;;;;;;3.60;1.00;;;23.80;49.50;;;;;;5070117;28;20066;-77
2022/08/31 12:43:07;;;;;;;3.38;1.00;;;23.70;49.90;;;;;;5049113;28;20479;-75
2022/08/31 12:45:50;;;;;;;4.00;0.90;;;23.90;50.00;;;;;;5065245;28;20063;-75
2022/08/31 12:48:28;;;;;;;4.35;0.90;;;23.70;49.00;;;;;;5077128;28;20032;-74
2022/08/31 12:51:29;;;;;;;2.95;0.90;;;23.70;49.30;;;;;;5064452;28;20053;-75
2022/08/31 12:54:12;;;;;;;3.70;0.90;;;23.80;48.90;;;;;;5084380;28;20127;-74
2022/08/31 12:57:09;;;;;;;4.35;0.98;;;23.90;48.40;;;;;;5055780;28;20040;-76
2022/08/31 12:59:45;;;;;;;2.28;0.90;;;23.70;46.80;;;;;;5067742;28;20093;-76
2022/08/31 13:02:12;;;;;;;3.45;1.00;;;23.80;46.70;;;;;;5069161;28;20124;-78
2022/08/31 13:04:43;;;;;;;2.70;0.90;;;23.70;47.10;;;;;;5067878;28;20523;-78
2022/08/31 13:07:28;;;;;;;2.88;0.80;;;23.60;47.80;;;;;;5058860;28;20044;-73
2022/08/31 13:10:13;;;;;;;2.83;0.90;;;23.50;49.40;;;;;;5071175;28;20353;-73
2022/08/31 13:12:46;;;;;;;3.35;1.00;;;23.70;48.80;;;;;;5054716;28;20591;-73
2022/08/31 13:15:29;;;;;;;3.33;0.80;;;23.70;48.30;;;;;;5066440;28;20055;-75
2022/08/31 13:17:55;;;;;;;2.90;0.90;;;23.70;48.60;;;;;;5064083;28;20028;-72
2022/08/31 13:20:27;;;;;;;3.47;0.95;;;24.00;47.50;;;;;;5063407;28;20045;-75
2022/08/31 13:23:01;;;;;;;2.92;0.90;;;23.80;46.60;;;;;;5087092;28;20170;-75
2022/08/31 13:25:36;;;;;;;4.15;1.02;;;24.00;47.20;;;;;;5032559;28;20068;-75
2022/08/31 13:28:11;;;;;;;3.28;1.00;;;24.20;47.60;;;;;;5068192;28;20357;-74
2022/08/31 13:30:38;;;;;;;3.03;1.02;;;24.20;47.10;;;;;;5057612;28;20040;-73
2022/08/31 13:33:23;;;;;;;2.83;0.98;;;24.00;47.00;;;;;;5068043;28;20115;-75